createdAt,value
2023-02-23T00:01:38.426Z,99535.03
2023-02-23T00:04:06.929Z,99496.09
2023-02-23T00:06:37.493Z,99526.78
2023-02-23T00:09:12.170Z,99518.53
2023-02-23T00:11:39.813Z,99525.22
2023-02-23T00:14:08.212Z,99515.00
2023-02-23T00:16:37.422Z,99521.69
2023-02-23T00:19:07.986Z,99517.75
2023-02-23T00:21:37.327Z,99511.81
2023-02-23T00:24:08.296Z,99513.75
2023-02-23T00:26:37.355Z,99511.03
2023-02-23T00:29:10.265Z,99519.28
2023-02-23T00:31:38.593Z,99516.50
2023-02-23T00:34:07.558Z,99514.94
2023-02-23T00:36:38.765Z,99515.72
2023-02-23T00:39:18.916Z,99523.97
2023-02-23T00:41:47.352Z,99509.84
2023-02-23T00:44:15.894Z,99519.25
2023-02-23T00:46:44.550Z,99516.91
2023-02-23T00:49:14.057Z,99516.50
2023-02-23T00:51:43.648Z,99516.88
2023-02-23T00:54:13.808Z,99520.84
2023-02-23T00:56:41.889Z,99495.25
2023-02-23T00:59:09.980Z,99513.78
2023-02-23T01:01:38.487Z,99508.66
2023-02-23T01:04:07.409Z,99511.38
2023-02-23T01:06:37.483Z,99504.72
2023-02-23T01:09:11.125Z,99510.22
2023-02-23T01:11:41.325Z,99498.03
2023-02-23T01:14:11.239Z,99515.69
2023-02-23T01:16:39.442Z,99511.38
2023-02-23T01:19:07.826Z,99510.59
2023-02-23T01:21:37.227Z,99510.19
2023-02-23T01:24:05.901Z,99514.50
2023-02-23T01:26:39.446Z,99509.41
2023-02-23T01:29:09.351Z,99512.53
2023-02-23T01:31:38.699Z,99508.56
2023-02-23T01:34:07.416Z,99509.41
2023-02-23T01:36:37.206Z,99511.78
2023-02-23T01:39:07.610Z,99517.25
2023-02-23T01:41:37.687Z,99512.13
2023-02-23T01:44:08.794Z,99496.41
2023-02-23T01:46:38.999Z,99507.78
2023-02-23T01:49:09.885Z,99504.31
2023-02-23T01:51:42.919Z,99505.50
2023-02-23T01:54:15.824Z,99498.75
2023-02-23T01:56:49.249Z,99498.34
2023-02-23T01:59:18.710Z,99501.56
2023-02-23T02:01:48.129Z,99500.78
2023-02-23T02:04:19.414Z,99493.28
2023-02-23T02:06:53.337Z,99496.81
2023-02-23T02:09:25.616Z,99497.22
2023-02-23T02:11:54.995Z,99497.19
2023-02-23T02:14:27.745Z,99496.03
2023-02-23T02:17:16.008Z,99494.47
2023-02-23T02:20:14.950Z,99495.63
2023-02-23T02:23:08.328Z,99495.22
2023-02-23T02:25:47.372Z,99493.28
2023-02-23T02:28:31.052Z,99480.72
2023-02-23T02:31:31.219Z,99481.91
2023-02-23T02:34:26.012Z,99482.66
2023-02-23T02:37:24.813Z,99481.13
2023-02-23T02:40:16.253Z,99481.91
2023-02-23T02:42:58.245Z,99471.31
2023-02-23T02:45:34.986Z,99476.44
2023-02-23T02:48:10.051Z,99475.22
2023-02-23T02:50:46.335Z,99470.94
2023-02-23T02:53:20.974Z,99467.03
2023-02-23T02:55:50.204Z,99467.03
2023-02-23T02:58:18.757Z,99478.75
2023-02-23T03:01:07.535Z,99464.22
2023-02-23T03:04:00.558Z,99468.97
2023-02-23T03:06:49.519Z,99472.09
2023-02-23T03:09:46.609Z,99460.28
2023-02-23T03:12:43.875Z,99463.81
2023-02-23T03:15:42.667Z,99464.66
2023-02-23T03:18:39.625Z,99466.97
2023-02-23T03:21:33.833Z,99471.72
2023-02-23T03:24:29.690Z,99462.25
2023-02-23T03:27:23.435Z,99470.50
2023-02-23T03:30:17.553Z,99466.22
2023-02-23T03:33:07.983Z,99466.22
2023-02-23T03:36:04.135Z,99466.22
2023-02-23T03:38:56.385Z,99458.78
2023-02-23T03:41:45.276Z,99459.16
2023-02-23T03:44:37.680Z,99465.84
2023-02-23T03:47:25.497Z,99463.81
2023-02-23T03:50:13.125Z,99461.88
2023-02-23T03:53:04.327Z,99465.84
2023-02-23T03:55:52.856Z,99467.41
2023-02-23T03:58:42.628Z,99463.06
2023-02-23T04:01:31.306Z,99463.03
2023-02-23T04:04:18.074Z,99465.81
2023-02-23T04:07:06.356Z,99459.16
2023-02-23T04:09:52.198Z,99461.50
2023-02-23T04:12:43.838Z,99454.38
2023-02-23T04:15:15.268Z,99471.63
2023-02-23T04:17:45.425Z,99474.00
2023-02-23T04:20:14.645Z,99464.56
2023-02-23T04:22:42.349Z,99471.69
2023-02-23T04:25:11.823Z,99474.91
2023-02-23T04:27:39.727Z,99469.41
2023-02-23T04:30:11.672Z,99478.03
2023-02-23T04:32:40.042Z,99476.06
2023-02-23T04:35:10.487Z,99471.00
2023-02-23T04:37:38.938Z,99475.72
2023-02-23T04:40:08.073Z,99474.47
2023-02-23T04:42:35.718Z,99481.91
2023-02-23T04:45:03.424Z,99481.13
2023-02-23T04:47:31.088Z,99482.72
2023-02-23T04:49:58.767Z,99479.97
2023-02-23T04:52:27.883Z,99485.84
2023-02-23T04:54:55.598Z,99480.28
2023-02-23T04:57:23.251Z,99486.59
2023-02-23T04:59:50.901Z,99486.63
2023-02-23T05:02:18.611Z,99488.19
2023-02-23T05:04:46.288Z,99490.53
2023-02-23T05:07:14.480Z,99487.41
2023-02-23T05:09:43.590Z,99488.56
2023-02-23T05:12:11.246Z,99486.63
2023-02-23T05:14:38.914Z,99487.34
2023-02-23T05:17:08.583Z,99485.84
2023-02-23T05:19:36.477Z,99488.25
2023-02-23T05:22:04.470Z,99487.00
2023-02-23T05:24:32.173Z,99496.06
2023-02-23T05:27:01.123Z,99486.66
2023-02-23T05:29:28.728Z,99494.44
2023-02-23T05:31:56.557Z,99488.16
2023-02-23T05:34:24.575Z,99486.50
2023-02-23T05:36:52.219Z,99487.75
2023-02-23T05:39:20.092Z,99493.66
2023-02-23T05:41:47.714Z,99487.34
2023-02-23T05:44:17.195Z,99488.94
2023-02-23T05:46:46.417Z,99491.28
2023-02-23T05:49:14.587Z,99497.63
2023-02-23T05:51:42.418Z,99499.13
2023-02-23T05:54:10.540Z,99497.53
2023-02-23T05:56:38.172Z,99501.53
2023-02-23T05:59:05.951Z,99501.50
2023-02-23T06:01:35.022Z,99503.00
2023-02-23T06:04:04.504Z,99496.41
2023-02-23T06:06:33.093Z,99494.44
2023-02-23T06:09:01.681Z,99492.03
2023-02-23T06:11:29.511Z,99490.13
2023-02-23T06:13:59.278Z,99501.53
2023-02-23T06:16:27.773Z,99501.16
2023-02-23T06:18:56.984Z,99499.94
2023-02-23T06:21:25.067Z,99503.50
2023-02-23T06:23:53.354Z,99509.78
2023-02-23T06:26:21.534Z,99499.94
2023-02-23T06:28:49.322Z,99507.38
2023-02-23T06:31:17.444Z,99507.78
2023-02-23T06:33:45.742Z,99516.38
2023-02-23T06:36:14.803Z,99519.16
2023-02-23T06:38:42.463Z,99518.41
2023-02-23T06:41:10.314Z,99515.69
2023-02-23T06:43:38.299Z,99511.72
2023-02-23T06:46:06.470Z,99519.97
2023-02-23T06:48:35.389Z,99520.44
2023-02-23T06:51:03.089Z,99531.34
2023-02-23T06:53:32.257Z,99527.09
2023-02-23T06:56:00.171Z,99525.13
2023-02-23T06:58:28.778Z,99547.88
2023-02-23T07:00:58.519Z,99529.44
2023-02-23T07:03:27.206Z,99530.63
2023-02-23T07:05:55.015Z,99529.03
2023-02-23T07:08:22.797Z,99537.34
2023-02-23T07:10:51.967Z,99546.75
2023-02-23T07:13:20.395Z,99543.22
2023-02-23T07:15:48.093Z,99543.66
2023-02-23T07:18:16.232Z,99544.41
2023-02-23T07:20:44.004Z,99551.47
2023-02-23T07:23:11.762Z,99551.44
2023-02-23T07:25:39.464Z,99552.63
2023-02-23T07:28:08.628Z,99548.72
2023-02-23T07:30:36.523Z,99555.41
2023-02-23T07:33:25.126Z,99561.31
2023-02-23T07:36:13.302Z,99528.28
2023-02-23T07:39:01.299Z,99557.03
2023-02-23T07:41:49.443Z,99561.34
2023-02-23T07:44:41.506Z,99562.19
2023-02-23T07:47:09.965Z,99551.22
2023-02-23T07:49:38.174Z,99556.72
2023-02-23T07:52:07.123Z,99555.16
2023-02-23T07:54:35.844Z,99566.59
2023-02-23T07:57:04.382Z,99565.38
2023-02-23T07:59:37.116Z,99566.94
2023-02-23T08:02:08.514Z,99561.41
2023-02-23T08:04:37.481Z,99559.44
2023-02-23T08:07:11.709Z,99573.28
2023-02-23T08:09:43.891Z,99570.88
2023-02-23T08:12:17.083Z,99573.59
2023-02-23T08:14:50.068Z,99570.88
2023-02-23T08:17:22.221Z,99576.59
2023-02-23T08:19:50.492Z,99577.50
2023-02-23T08:22:18.790Z,99578.63
2023-02-23T08:24:53.380Z,99579.50
2023-02-23T08:27:22.142Z,99583.78
2023-02-23T08:29:52.837Z,99581.00
2023-02-23T08:32:22.602Z,99581.78
2023-02-23T08:34:51.227Z,99592.75
2023-02-23T08:37:38.254Z,99587.69
2023-02-23T08:40:18.918Z,99589.28
2023-02-23T08:42:48.721Z,99586.03
2023-02-23T08:45:19.964Z,99588.03
2023-02-23T08:47:52.256Z,99592.34
2023-02-23T08:50:33.009Z,99599.50
2023-02-23T08:53:14.551Z,99591.66
2023-02-23T08:56:22.686Z,99599.94
2023-02-23T08:58:54.366Z,99601.88
2023-02-23T09:01:30.037Z,99594.47
2023-02-23T09:04:03.172Z,99591.31
2023-02-23T09:06:38.434Z,99604.31
2023-02-23T09:09:16.846Z,99597.63
2023-02-23T09:11:51.156Z,99596.44
2023-02-23T09:14:23.024Z,99597.31
2023-02-23T09:16:51.997Z,99600.50
2023-02-23T09:19:22.852Z,99593.00
2023-02-23T09:21:51.425Z,99598.91
2023-02-23T09:24:28.791Z,99604.84
2023-02-23T09:26:57.037Z,99603.69
2023-02-23T09:29:29.324Z,99607.25
2023-02-23T09:32:00.652Z,99612.34
2023-02-23T09:34:30.967Z,99615.09
2023-02-23T09:36:59.497Z,99615.13
2023-02-23T09:39:37.736Z,99623.38
2023-02-23T09:42:37.752Z,99617.47
2023-02-23T09:45:24.342Z,99610.00
2023-02-23T09:48:11.053Z,99614.34
2023-02-23T09:50:53.284Z,99615.97
2023-02-23T09:53:49.973Z,99616.34
2023-02-23T09:56:29.708Z,99622.28
2023-02-23T09:59:16.713Z,99597.88
2023-02-23T10:01:57.707Z,99615.97
2023-02-23T10:04:35.803Z,99613.59
2023-02-23T10:07:42.027Z,99617.50
2023-02-23T10:10:23.901Z,99630.91
2023-02-23T10:13:04.088Z,99624.91
2023-02-23T10:15:42.680Z,99624.81
2023-02-23T10:18:40.549Z,99625.53
2023-02-23T10:21:23.166Z,99630.16
2023-02-23T10:24:15.641Z,99626.88
2023-02-23T10:30:16.288Z,99629.78
2023-02-23T10:32:58.781Z,99637.31
2023-02-23T10:35:32.075Z,99636.59
2023-02-23T10:38:08.949Z,99636.75
2023-02-23T10:40:47.838Z,99640.03
2023-02-23T10:43:16.823Z,99631.25
2023-02-23T10:45:48.216Z,99637.66
2023-02-23T10:48:21.028Z,99636.06
2023-02-23T10:50:54.191Z,99635.22
2023-02-23T10:53:26.679Z,99634.59
2023-02-23T10:56:10.776Z,99636.44
2023-02-23T10:58:45.092Z,99625.84
2023-02-23T11:01:14.614Z,99625.56
2023-02-23T11:04:04.344Z,99638.31
2023-02-23T11:06:39.584Z,99631.44
2023-02-23T11:09:43.366Z,99629.00
2023-02-23T11:12:28.557Z,99638.78
2023-02-23T11:15:50.993Z,99638.56
2023-02-23T11:18:30.198Z,99636.16
2023-02-23T11:24:13.150Z,99634.16
2023-02-23T11:26:49.956Z,99633.94
2023-02-23T11:29:58.205Z,99622.25
2023-02-23T11:32:44.137Z,99625.13
2023-02-23T11:35:21.416Z,99626.78
2023-02-23T11:38:32.604Z,99624.94
2023-02-23T11:41:11.565Z,99620.28
2023-02-23T11:43:51.576Z,99616.50
2023-02-23T11:46:27.837Z,99611.03
2023-02-23T11:49:04.330Z,99606.00
2023-02-23T11:51:56.380Z,99607.75
2023-02-23T11:54:36.497Z,99607.91
2023-02-23T11:57:10.929Z,99609.91
2023-02-23T11:59:43.280Z,99610.59
2023-02-23T12:02:25.002Z,99603.75
2023-02-23T12:05:19.981Z,99602.88
2023-02-23T12:07:56.053Z,99600.13
2023-02-23T12:10:33.549Z,99600.22
2023-02-23T12:13:20.966Z,99601.31
2023-02-23T12:15:58.962Z,99603.69
2023-02-23T12:19:15.878Z,99596.72
2023-02-23T12:25:37.601Z,99581.53
2023-02-23T12:28:19.202Z,99581.09
2023-02-23T12:30:56.083Z,99580.91
2023-02-23T12:33:33.966Z,99584.69
2023-02-23T12:36:10.313Z,99581.28
2023-02-23T12:38:49.777Z,99577.09
2023-02-23T12:41:27.798Z,99566.09
2023-02-23T12:44:02.029Z,99566.88
2023-02-23T12:46:35.744Z,99558.63
2023-02-23T12:49:14.201Z,99566.31
2023-02-23T12:51:53.773Z,99562.66
2023-02-23T12:54:24.417Z,99561.69
2023-02-23T12:57:02.577Z,99567.25
2023-02-23T13:00:10.006Z,99561.19
2023-02-23T13:02:45.617Z,99563.75
2023-02-23T13:05:26.873Z,99547.63
2023-02-23T13:08:13.465Z,99554.03
2023-02-23T13:10:54.106Z,99544.59
2023-02-23T13:13:32.200Z,99556.00
2023-02-23T13:16:05.134Z,99560.28
2023-02-23T13:18:39.262Z,99564.13
2023-02-23T13:21:13.899Z,99557.44
2023-02-23T13:23:53.178Z,99561.81
2023-02-23T13:26:31.724Z,99557.13
2023-02-23T13:29:07.227Z,99556.19
2023-02-23T13:31:38.021Z,99557.97
2023-02-23T13:34:10.485Z,99555.25
2023-02-23T13:36:40.749Z,99549.97
2023-02-23T13:39:40.845Z,99548.97
2023-02-23T13:42:36.383Z,99555.44
2023-02-23T13:45:47.300Z,99552.25
2023-02-23T13:48:25.342Z,99557.75
2023-02-23T13:50:59.148Z,99552.91
2023-02-23T13:53:39.662Z,99528.19
2023-02-23T13:56:12.334Z,99551.72
2023-02-23T13:58:48.330Z,99555.81
2023-02-23T14:01:19.497Z,99561.78
2023-02-23T14:03:54.680Z,99564.09
2023-02-23T14:06:25.810Z,99559.03
2023-02-23T14:09:01.095Z,99555.25
2023-02-23T14:11:45.704Z,99555.16
2023-02-23T14:14:32.829Z,99556.69
2023-02-23T14:17:12.580Z,99562.59
2023-02-23T14:19:43.471Z,99552.06
2023-02-23T14:22:22.208Z,99554.97
2023-02-23T14:25:20.744Z,99551.72
2023-02-23T14:28:00.431Z,99552.56
2023-02-23T14:30:44.837Z,99554.06
2023-02-23T14:33:38.380Z,99552.56
2023-02-23T14:36:46.820Z,99555.97
2023-02-23T14:39:23.584Z,99557.53
2023-02-23T14:41:56.904Z,99548.31
2023-02-23T14:44:31.357Z,99553.91
2023-02-23T14:47:05.621Z,99555.84
2023-02-23T14:49:37.124Z,99549.94
2023-02-23T14:52:21.154Z,99549.59
2023-02-23T14:54:49.770Z,99548.31
2023-02-23T14:57:21.298Z,99551.16
2023-02-23T14:59:59.233Z,99543.84
2023-02-23T15:02:34.318Z,99539.38
2023-02-23T15:05:16.237Z,99541.81
2023-02-23T15:07:45.867Z,99535.47
2023-02-23T15:10:21.234Z,99551.97
2023-02-23T15:12:49.483Z,99546.97
2023-02-23T15:15:21.138Z,99545.44
2023-02-23T15:17:57.147Z,99553.78
2023-02-23T15:23:07.227Z,99556.28
2023-02-23T15:25:38.939Z,99558.03
2023-02-23T15:28:29.529Z,99551.13
2023-02-23T15:31:06.443Z,99554.16
2023-02-23T15:33:37.476Z,99555.09
2023-02-23T15:36:13.624Z,99560.28
2023-02-23T15:38:47.508Z,99559.50
2023-02-23T15:41:24.608Z,99547.69
2023-02-23T15:44:18.570Z,99546.47
2023-02-23T15:46:54.109Z,99544.16
2023-02-23T15:49:32.524Z,99555.63
2023-02-23T15:52:09.382Z,99545.06
2023-02-23T15:54:47.049Z,99545.50
2023-02-23T15:57:38.641Z,99545.22
2023-02-23T16:04:11.514Z,99549.19
2023-02-23T16:07:23.023Z,99557.13
2023-02-23T16:09:57.126Z,99559.56
2023-02-23T16:12:32.021Z,99557.59
2023-02-23T16:15:02.484Z,99555.22
2023-02-23T16:17:39.317Z,99549.75
2023-02-23T16:20:17.356Z,99544.63
2023-02-23T16:22:53.555Z,99545.00
2023-02-23T16:25:23.066Z,99510.88
2023-02-23T16:27:59.600Z,99545.44
2023-02-23T16:30:43.228Z,99551.06
2023-02-23T16:33:20.606Z,99549.47
2023-02-23T16:35:50.961Z,99480.03
2023-02-23T16:38:26.439Z,99557.84
2023-02-23T16:40:54.998Z,99561.44
2023-02-23T16:43:23.128Z,99561.47
2023-02-23T16:45:51.405Z,99566.25
2023-02-23T16:48:20.160Z,99542.66
2023-02-23T16:50:52.072Z,99563.91
2023-02-23T16:53:28.174Z,99559.94
2023-02-23T16:56:01.677Z,99551.75
2023-02-23T16:58:36.140Z,99571.41
2023-02-23T17:01:04.988Z,99553.69
2023-02-23T17:03:34.312Z,99560.03
2023-02-23T17:06:09.832Z,99557.66
2023-02-23T17:08:45.949Z,99559.63
2023-02-23T17:11:20.817Z,99567.94
2023-02-23T17:13:49.496Z,99569.50
2023-02-23T17:16:18.038Z,99564.41
2023-02-23T17:18:46.436Z,99573.44
2023-02-23T17:21:23.647Z,99569.53
2023-02-23T17:23:53.809Z,99576.22
2023-02-23T17:26:25.222Z,99576.22
2023-02-23T17:28:53.919Z,99577.81
2023-02-23T17:31:25.615Z,99571.88
2023-02-23T17:33:58.329Z,99579.38
2023-02-23T17:36:28.402Z,99577.81
2023-02-23T17:39:00.522Z,99577.00
2023-02-23T17:45:26.677Z,99583.28
2023-02-23T17:47:57.615Z,99565.97
2023-02-23T17:50:28.288Z,99570.28
2023-02-23T17:53:00.529Z,99569.53
2023-02-23T17:55:42.632Z,99580.53
2023-02-23T17:58:17.751Z,99582.50
2023-02-23T18:00:59.547Z,99576.59
2023-02-23T18:03:36.262Z,99573.84
2023-02-23T18:06:19.899Z,99580.13
2023-02-23T18:09:06.070Z,99578.94
2023-02-23T18:11:46.035Z,99573.84
2023-02-23T18:14:37.720Z,99568.72
2023-02-23T18:17:25.251Z,99570.72
2023-02-23T18:20:02.542Z,99575.81
2023-02-23T18:22:33.966Z,99578.94
2023-02-23T18:25:02.889Z,99575.00
2023-02-23T18:27:35.650Z,99572.66
2023-02-23T18:30:04.403Z,99565.56
2023-02-23T18:32:36.981Z,99571.06
2023-02-23T18:35:12.287Z,99568.31
2023-02-23T18:37:50.268Z,99578.94
2023-02-23T18:40:24.223Z,99571.47
2023-02-23T18:42:59.622Z,99577.34
2023-02-23T18:45:36.582Z,99584.00
2023-02-23T18:48:14.051Z,99580.88
2023-02-23T18:50:46.370Z,99578.53
2023-02-23T18:53:39.626Z,99574.56
2023-02-23T18:56:11.912Z,99574.97
2023-02-23T18:58:43.244Z,99577.31
2023-02-23T19:01:18.467Z,99578.09
2023-02-23T19:04:05.605Z,99568.66
2023-02-23T19:06:44.116Z,99570.25
2023-02-23T19:09:41.380Z,99572.19
2023-02-23T19:12:21.944Z,99567.47
2023-02-23T19:14:59.293Z,99568.63
2023-02-23T19:17:53.732Z,99496.97
2023-02-23T19:20:23.191Z,99573.34
2023-02-23T19:22:58.453Z,99565.88
2023-02-23T19:25:29.086Z,99572.16
2023-02-23T19:27:58.068Z,99559.16
2023-02-23T19:30:30.759Z,99551.72
2023-02-23T19:33:01.925Z,99554.06
2023-02-23T19:35:33.269Z,99556.41
2023-02-23T19:38:03.761Z,99545.38
2023-02-23T19:40:32.436Z,99548.94
2023-02-23T19:43:00.623Z,99555.19
2023-02-23T19:45:47.695Z,99557.56
2023-02-23T19:48:17.677Z,99562.25
2023-02-23T19:50:54.728Z,99563.44
2023-02-23T19:53:23.222Z,99565.41
2023-02-23T19:55:59.932Z,99570.53
2023-02-23T19:58:27.973Z,99567.78
2023-02-23T20:01:09.148Z,99568.94
2023-02-23T20:04:05.091Z,99560.66
2023-02-23T20:06:39.923Z,99570.84
2023-02-23T20:09:09.806Z,99577.56
2023-02-23T20:11:47.014Z,99574.38
2023-02-23T20:14:15.697Z,99569.28
2023-02-23T20:16:48.755Z,99582.56
2023-02-23T20:19:18.085Z,99589.28
2023-02-23T20:21:52.662Z,99587.69
2023-02-23T20:24:20.986Z,99588.03
2023-02-23T20:26:57.305Z,99600.22
2023-02-23T20:29:28.046Z,99590.03
2023-02-23T20:32:02.741Z,99589.19
2023-02-23T20:34:31.310Z,99593.56
2023-02-23T20:37:05.174Z,99590.81
2023-02-23T20:39:33.575Z,99589.28
2023-02-23T20:42:01.852Z,99592.03
2023-02-23T20:44:31.384Z,99593.19
2023-02-23T20:47:09.989Z,99586.09
2023-02-23T20:49:41.737Z,99577.00
2023-02-23T20:52:10.233Z,99584.91
2023-02-23T20:54:40.064Z,99582.53
2023-02-23T20:57:09.326Z,99582.53
2023-02-23T20:59:44.381Z,99579.31
2023-02-23T21:02:15.383Z,99586.81
2023-02-23T21:04:44.537Z,99589.94
2023-02-23T21:07:13.814Z,99589.97
2023-02-23T21:09:43.030Z,99592.31
2023-02-23T21:12:33.163Z,99595.84
2023-02-23T21:15:47.089Z,99584.78
2023-02-23T21:18:23.199Z,99587.94
2023-02-23T21:20:56.793Z,99592.63
2023-02-23T21:23:43.651Z,99590.28
2023-02-23T21:26:15.765Z,99589.88
2023-02-23T21:28:45.521Z,99588.69
2023-02-23T21:31:19.208Z,99586.31
2023-02-23T21:33:52.576Z,99587.50
2023-02-23T21:36:21.271Z,99591.00
2023-02-23T21:38:52.253Z,99586.22
2023-02-23T21:41:20.941Z,99588.59
2023-02-23T21:43:53.389Z,99589.25
2023-02-23T21:46:23.126Z,99595.59
2023-02-23T21:48:52.272Z,99590.19
2023-02-23T21:51:20.734Z,99589.06
2023-02-23T21:53:48.514Z,99582.03
2023-02-23T21:56:17.850Z,99589.91
2023-02-23T21:58:47.700Z,99588.25
2023-02-23T22:01:17.225Z,99586.31
2023-02-23T22:03:45.638Z,99570.94
2023-02-23T22:06:15.676Z,99591.47
2023-02-23T22:08:44.791Z,99591.09
2023-02-23T22:11:17.175Z,99587.91
2023-02-23T22:13:45.753Z,99589.88
2023-02-23T22:16:14.398Z,99588.69
2023-02-23T22:18:42.394Z,99587.06
2023-02-23T22:21:11.626Z,99580.75
2023-02-23T22:23:43.406Z,99582.84
2023-02-23T22:26:11.266Z,99583.63
2023-02-23T22:28:39.200Z,99575.41
2023-02-23T22:31:09.167Z,99575.34
2023-02-23T22:33:37.342Z,99574.59
2023-02-23T22:36:08.017Z,99573.38
2023-02-23T22:38:36.023Z,99575.34
2023-02-23T22:41:07.299Z,99567.88
2023-02-23T22:43:35.139Z,99571.75
2023-02-23T22:46:02.914Z,99566.59
2023-02-23T22:48:30.553Z,99578.06
2023-02-23T22:50:59.577Z,99570.94
2023-02-23T22:53:27.737Z,99563.84
2023-02-23T22:55:56.554Z,99570.56
2023-02-23T22:58:27.006Z,99567.00
2023-02-23T23:01:05.754Z,99570.50
2023-02-23T23:03:36.009Z,99572.50
2023-02-23T23:06:04.676Z,99569.34
2023-02-23T23:08:36.405Z,99567.41
2023-02-23T23:11:09.262Z,99565.38
2023-02-23T23:13:44.476Z,99565.75
2023-02-23T23:16:28.920Z,99560.66
2023-02-23T23:19:02.250Z,99530.28
2023-02-23T23:21:32.698Z,99557.88
2023-02-23T23:24:05.481Z,99557.81
2023-02-23T23:26:35.123Z,99543.69
2023-02-23T23:29:06.078Z,99553.53
2023-02-23T23:31:35.820Z,99551.97
2023-02-23T23:34:06.576Z,99549.97
2023-02-23T23:36:37.196Z,99552.31
2023-02-23T23:39:06.700Z,99558.59
2023-02-23T23:41:35.288Z,99554.66
2023-02-23T23:44:05.199Z,99547.94
2023-02-23T23:46:35.526Z,99545.97
2023-02-23T23:49:05.994Z,99551.50
2023-02-23T23:51:37.398Z,99536.56
2023-02-23T23:54:06.497Z,99536.16
2023-02-23T23:56:37.152Z,99531.41
2023-02-23T23:59:08.125Z,99467.94
